Peytonsville, Tennessee
Current Conditions -  °F | °C
As of 2:53 AM on Wednesday 22 Oct 2014 (Local Time) from KBNA Reporting Station
Clear Clear  
Wind Chill: 45°   Ceiling: Unl
Heat Index: 47°   Visibility: 10mi
Dew Point: 42°   Wind: 5mph
Humidity: 83%   Direction: 360°N
Pressure: 30.16"   Gusts: NA
Location:  35.8909°N, 86.9583°W
Report Text: KBNA 220753Z 36004KT 10SM CLR 08/06 A3016 RMK AO2 SLP209 T00830056
Loading
Personal Weather Stations






























Interactive Weather Map
Tropical Storm Tracking
New forecast layout! Learn more

10-Day Weather Forecast

Advertisements
Track Severe Weather on mobile